FDX122 KMSY-KRSW
Flight info
| Callsign | FDX122 |
|---|---|
| Flight time | 1h 11m |
| Altitude | 37000 |
| Route | BLVNS Q102 BUNNZ KOLBR TYNEE4 |
| Aircraft | B738/M-SDE2E3FGHIRWXY/LB1 |
Departure
| Time | 2026-05-04 00:14 |
|---|---|
| Airport | Louis Armstrong New Orleans International Airport (KMSY) |
Arrival
| Time | 2026-05-04 01:26 |
|---|---|
| Airport | Southwest Florida International Airport (KRSW) |
| Time | Latitude | Longitude | Altitude | Speed | Heading |
|---|---|---|---|---|---|
| 2026-05-03 23:47 | 29.98945 | -90.26392 | 8 ft | 0 kts | 283° |
| 2026-05-04 00:07 | 29.98943 | -90.26383 | 8 ft | 2 kts | 283° |
| 2026-05-04 00:07 | 29.98939 | -90.26369 | 8 ft | 2 kts | 299° |
| 2026-05-04 00:07 | 29.98932 | -90.26356 | 8 ft | 2 kts | 316° |
| 2026-05-04 00:08 | 29.98922 | -90.26347 | 8 ft | 2 kts | 332° |
| 2026-05-04 00:08 | 29.98910 | -90.26341 | 8 ft | 2 kts | 348° |
| 2026-05-04 00:08 | 29.98897 | -90.26339 | 8 ft | 2 kts | 4° |
| 2026-05-04 00:08 | 29.98884 | -90.26341 | 8 ft | 2 kts | 20° |
| 2026-05-04 00:09 | 29.98883 | -90.26342 | 8 ft | 0 kts | 22° |
| 2026-05-04 00:10 | 29.98894 | -90.26335 | 8 ft | 8 kts | 30° |
| 2026-05-04 00:10 | 29.98976 | -90.26290 | 6 ft | 13 kts | 14° |
| 2026-05-04 00:10 | 29.99065 | -90.26275 | 5 ft | 13 kts | 333° |
| 2026-05-04 00:10 | 29.99105 | -90.26379 | 7 ft | 18 kts | 285° |
| 2026-05-04 00:11 | 29.99142 | -90.26530 | 6 ft | 24 kts | 285° |
| 2026-05-04 00:11 | 29.99194 | -90.26747 | 7 ft | 29 kts | 285° |
| 2026-05-04 00:11 | 29.99246 | -90.26965 | 7 ft | 27 kts | 285° |
| 2026-05-04 00:11 | 29.99295 | -90.27167 | 7 ft | 26 kts | 285° |
| 2026-05-04 00:12 | 29.99344 | -90.27373 | 2 ft | 28 kts | 285° |
| 2026-05-04 00:12 | 29.99397 | -90.27594 | 2 ft | 28 kts | 285° |
| 2026-05-04 00:12 | 29.99453 | -90.27824 | 2 ft | 30 kts | 285° |
| 2026-05-04 00:12 | 29.99508 | -90.28052 | 7 ft | 29 kts | 285° |
| 2026-05-04 00:13 | 29.99597 | -90.28179 | 5 ft | 20 kts | 8° |
| 2026-05-04 00:13 | 29.99641 | -90.28077 | 5 ft | 15 kts | 105° |
| 2026-05-04 00:13 | 29.99576 | -90.27811 | 3 ft | 69 kts | 105° |
| 2026-05-04 00:13 | 29.99381 | -90.27004 | 6 ft | 137 kts | 105° |
| 2026-05-04 00:14 | 29.99079 | -90.25754 | 185 ft | 176 kts | 105° |
| 2026-05-04 00:14 | 29.98759 | -90.24429 | 1072 ft | 173 kts | 105° |
| 2026-05-04 00:14 | 29.98446 | -90.23090 | 1887 ft | 176 kts | 104° |
| 2026-05-04 00:14 | 29.98098 | -90.21620 | 2313 ft | 206 kts | 104° |
| 2026-05-04 00:15 | 29.97390 | -90.20064 | 2546 ft | 234 kts | 130° |
| 2026-05-04 00:15 | 29.96265 | -90.18611 | 2878 ft | 257 kts | 131° |
| 2026-05-04 00:15 | 29.95046 | -90.17023 | 3533 ft | 268 kts | 130° |
| 2026-05-04 00:15 | 29.93823 | -90.15406 | 4512 ft | 268 kts | 129° |
| 2026-05-04 00:16 | 29.92598 | -90.13764 | 5400 ft | 272 kts | 129° |
| 2026-05-04 00:16 | 29.91355 | -90.12080 | 6265 ft | 277 kts | 129° |
| 2026-05-04 00:16 | 29.90109 | -90.10377 | 7082 ft | 281 kts | 129° |
| 2026-05-04 00:16 | 29.88839 | -90.08630 | 7831 ft | 288 kts | 129° |
| 2026-05-04 00:17 | 29.87556 | -90.06858 | 8592 ft | 293 kts | 129° |
| 2026-05-04 00:17 | 29.86235 | -90.05027 | 9384 ft | 299 kts | 129° |
| 2026-05-04 00:17 | 29.84900 | -90.03175 | 10145 ft | 304 kts | 129° |
| 2026-05-04 00:17 | 29.83516 | -90.01250 | 10603 ft | 321 kts | 129° |
| 2026-05-04 00:18 | 29.82038 | -89.99193 | 10870 ft | 342 kts | 129° |
| 2026-05-04 00:18 | 29.80502 | -89.97056 | 11513 ft | 349 kts | 129° |
| 2026-05-04 00:18 | 29.78949 | -89.94895 | 12268 ft | 352 kts | 129° |
| 2026-05-04 00:18 | 29.77375 | -89.92705 | 12998 ft | 357 kts | 130° |
| 2026-05-04 00:19 | 29.75780 | -89.90488 | 13711 ft | 362 kts | 130° |
| 2026-05-04 00:19 | 29.74164 | -89.88240 | 14358 ft | 367 kts | 130° |
| 2026-05-04 00:19 | 29.72517 | -89.85952 | 14996 ft | 372 kts | 130° |
| 2026-05-04 00:19 | 29.70857 | -89.83645 | 15637 ft | 377 kts | 130° |
| 2026-05-04 00:20 | 29.69176 | -89.81311 | 16246 ft | 382 kts | 129° |
| 2026-05-04 00:20 | 29.67489 | -89.78969 | 16859 ft | 387 kts | 129° |
| 2026-05-04 00:20 | 29.65763 | -89.76575 | 17473 ft | 392 kts | 129° |
| 2026-05-04 00:20 | 29.64012 | -89.74148 | 18079 ft | 397 kts | 129° |
| 2026-05-04 00:21 | 29.62237 | -89.71688 | 18650 ft | 402 kts | 129° |
| 2026-05-04 00:21 | 29.61025 | -89.70009 | 18989 ft | 406 kts | 129° |
| 2026-05-04 00:21 | 29.59234 | -89.67531 | 19470 ft | 411 kts | 129° |
| 2026-05-04 00:21 | 29.57393 | -89.64985 | 19971 ft | 416 kts | 130° |
| 2026-05-04 00:22 | 29.54896 | -89.61535 | 20639 ft | 423 kts | 130° |
| 2026-05-04 00:22 | 29.53647 | -89.59809 | 20959 ft | 426 kts | 130° |
| 2026-05-04 00:22 | 29.51740 | -89.57177 | 21442 ft | 431 kts | 130° |
| 2026-05-04 00:22 | 29.49806 | -89.54510 | 21910 ft | 436 kts | 131° |
| 2026-05-04 00:23 | 29.47856 | -89.51822 | 22391 ft | 441 kts | 131° |
| 2026-05-04 00:23 | 29.45877 | -89.49096 | 22838 ft | 446 kts | 131° |
| 2026-05-04 00:23 | 29.43881 | -89.46349 | 23302 ft | 451 kts | 131° |
| 2026-05-04 00:23 | 29.41861 | -89.43570 | 23724 ft | 456 kts | 131° |
| 2026-05-04 00:24 | 29.39815 | -89.40757 | 24093 ft | 460 kts | 132° |
| 2026-05-04 00:24 | 29.37754 | -89.37926 | 24509 ft | 463 kts | 132° |
| 2026-05-04 00:24 | 29.35683 | -89.35081 | 24916 ft | 466 kts | 132° |
| 2026-05-04 00:24 | 29.33594 | -89.32215 | 25306 ft | 470 kts | 132° |
| 2026-05-04 00:25 | 29.31514 | -89.29364 | 25687 ft | 473 kts | 132° |
| 2026-05-04 00:25 | 29.29398 | -89.26465 | 26061 ft | 476 kts | 133° |
| 2026-05-04 00:25 | 29.27264 | -89.23543 | 26429 ft | 480 kts | 133° |
| 2026-05-04 00:25 | 29.25112 | -89.20600 | 26802 ft | 483 kts | 133° |
| 2026-05-04 00:26 | 29.22947 | -89.17638 | 27166 ft | 486 kts | 133° |
| 2026-05-04 00:26 | 29.20771 | -89.14666 | 27527 ft | 489 kts | 133° |
| 2026-05-04 00:26 | 29.18577 | -89.11671 | 27882 ft | 492 kts | 133° |
| 2026-05-04 00:26 | 29.16373 | -89.08665 | 28234 ft | 495 kts | 133° |
| 2026-05-04 00:27 | 29.14154 | -89.05640 | 28577 ft | 498 kts | 133° |
| 2026-05-04 00:27 | 29.11921 | -89.02598 | 28907 ft | 501 kts | 133° |
| 2026-05-04 00:27 | 29.09670 | -88.99534 | 29243 ft | 503 kts | 133° |
| 2026-05-04 00:27 | 29.07409 | -88.96458 | 29569 ft | 506 kts | 134° |
| 2026-05-04 00:28 | 29.05134 | -88.93366 | 29898 ft | 509 kts | 134° |
| 2026-05-04 00:28 | 29.02852 | -88.90267 | 30195 ft | 511 kts | 134° |
| 2026-05-04 00:28 | 29.00578 | -88.87181 | 30452 ft | 514 kts | 134° |
| 2026-05-04 00:28 | 28.98274 | -88.84056 | 30714 ft | 516 kts | 134° |
| 2026-05-04 00:29 | 28.95954 | -88.80912 | 30992 ft | 517 kts | 134° |
| 2026-05-04 00:29 | 28.93630 | -88.77765 | 31248 ft | 519 kts | 134° |
| 2026-05-04 00:29 | 28.91294 | -88.74604 | 31491 ft | 521 kts | 134° |
| 2026-05-04 00:29 | 28.88945 | -88.71429 | 31728 ft | 523 kts | 134° |
| 2026-05-04 00:30 | 28.86592 | -88.68251 | 31970 ft | 525 kts | 134° |
| 2026-05-04 00:30 | 28.84238 | -88.65072 | 32248 ft | 525 kts | 134° |
| 2026-05-04 00:30 | 28.81871 | -88.61878 | 32598 ft | 524 kts | 134° |
| 2026-05-04 00:30 | 28.79518 | -88.58704 | 32962 ft | 523 kts | 135° |
| 2026-05-04 00:31 | 28.77168 | -88.55539 | 33286 ft | 522 kts | 135° |
| 2026-05-04 00:31 | 28.74855 | -88.52426 | 33569 ft | 522 kts | 135° |
| 2026-05-04 00:31 | 28.72501 | -88.49261 | 33860 ft | 522 kts | 135° |
| 2026-05-04 00:31 | 28.70157 | -88.46111 | 34173 ft | 521 kts | 135° |
| 2026-05-04 00:32 | 28.67812 | -88.42962 | 34441 ft | 520 kts | 135° |
| 2026-05-04 00:32 | 28.65471 | -88.39822 | 34692 ft | 520 kts | 135° |
| 2026-05-04 00:32 | 28.63128 | -88.36681 | 34924 ft | 520 kts | 136° |
| 2026-05-04 00:32 | 28.60788 | -88.33546 | 35170 ft | 519 kts | 136° |
| 2026-05-04 00:33 | 28.58453 | -88.30420 | 35416 ft | 519 kts | 136° |
| 2026-05-04 00:33 | 28.53785 | -88.24178 | 35873 ft | 518 kts | 136° |
| 2026-05-04 00:33 | 28.51445 | -88.21052 | 36092 ft | 518 kts | 137° |
| 2026-05-04 00:34 | 28.49111 | -88.17936 | 36317 ft | 517 kts | 137° |
| 2026-05-04 00:34 | 28.46806 | -88.14861 | 36559 ft | 516 kts | 137° |
| 2026-05-04 00:34 | 28.44480 | -88.11760 | 36786 ft | 515 kts | 137° |
| 2026-05-04 00:34 | 28.42155 | -88.08663 | 36995 ft | 515 kts | 138° |
| 2026-05-04 00:35 | 28.39887 | -88.05480 | 37117 ft | 522 kts | 131° |
| 2026-05-04 00:35 | 28.36470 | -87.98085 | 37121 ft | 537 kts | 112° |
| 2026-05-04 00:36 | 28.34193 | -87.90029 | 37126 ft | 536 kts | 110° |
| 2026-05-04 00:36 | 28.31983 | -87.81954 | 37124 ft | 534 kts | 111° |
| 2026-05-04 00:37 | 28.29714 | -87.73951 | 37131 ft | 533 kts | 112° |
| 2026-05-04 00:37 | 28.27393 | -87.65949 | 37130 ft | 532 kts | 112° |
| 2026-05-04 00:38 | 28.25069 | -87.57986 | 37128 ft | 532 kts | 112° |
| 2026-05-04 00:38 | 28.22758 | -87.50069 | 37130 ft | 532 kts | 112° |
| 2026-05-04 00:39 | 28.20429 | -87.42095 | 37129 ft | 533 kts | 112° |
| 2026-05-04 00:39 | 28.18090 | -87.34107 | 37129 ft | 534 kts | 112° |
| 2026-05-04 00:40 | 28.15741 | -87.26103 | 37126 ft | 535 kts | 113° |
| 2026-05-04 00:40 | 28.13383 | -87.18086 | 37126 ft | 536 kts | 113° |
| 2026-05-04 00:41 | 28.11034 | -87.10122 | 37123 ft | 537 kts | 113° |
| 2026-05-04 00:41 | 28.08656 | -87.02079 | 37123 ft | 538 kts | 113° |
| 2026-05-04 00:42 | 28.06275 | -86.94042 | 37119 ft | 538 kts | 113° |
| 2026-05-04 00:42 | 28.03887 | -86.85998 | 37117 ft | 538 kts | 114° |
| 2026-05-04 00:43 | 28.01495 | -86.77962 | 37117 ft | 538 kts | 114° |
| 2026-05-04 00:43 | 27.98596 | -86.70309 | 37123 ft | 530 kts | 122° |
| 2026-05-04 00:44 | 27.95331 | -86.62835 | 37107 ft | 529 kts | 123° |
| 2026-05-04 00:44 | 27.92066 | -86.55372 | 37106 ft | 528 kts | 123° |
| 2026-05-04 00:45 | 27.88846 | -86.47903 | 37104 ft | 528 kts | 123° |
| 2026-05-04 00:45 | 27.85643 | -86.40433 | 37116 ft | 527 kts | 123° |
| 2026-05-04 00:46 | 27.82446 | -86.32989 | 37107 ft | 526 kts | 123° |
| 2026-05-04 00:46 | 27.79264 | -86.25602 | 37107 ft | 525 kts | 123° |
| 2026-05-04 00:47 | 27.76068 | -86.18198 | 37108 ft | 524 kts | 124° |
| 2026-05-04 00:47 | 27.72871 | -86.10807 | 37108 ft | 524 kts | 124° |
| 2026-05-04 00:48 | 27.69670 | -86.03421 | 37106 ft | 523 kts | 124° |
| 2026-05-04 00:48 | 27.66466 | -85.96039 | 37108 ft | 524 kts | 124° |
| 2026-05-04 00:49 | 27.63279 | -85.88711 | 37104 ft | 524 kts | 124° |
| 2026-05-04 00:49 | 27.60061 | -85.81325 | 37104 ft | 524 kts | 125° |
| 2026-05-04 00:50 | 27.56840 | -85.73945 | 37102 ft | 525 kts | 125° |
| 2026-05-04 00:50 | 27.53609 | -85.66553 | 37102 ft | 525 kts | 125° |
| 2026-05-04 00:51 | 27.50371 | -85.59159 | 37096 ft | 526 kts | 125° |
| 2026-05-04 00:51 | 27.47148 | -85.51810 | 37099 ft | 526 kts | 126° |
| 2026-05-04 00:52 | 27.43899 | -85.44416 | 37095 ft | 526 kts | 126° |
| 2026-05-04 00:52 | 27.40881 | -85.36872 | 37064 ft | 541 kts | 110° |
| 2026-05-04 00:53 | 27.40000 | -85.28350 | 37088 ft | 551 kts | 98° |
| 2026-05-04 00:53 | 27.39536 | -85.19737 | 37093 ft | 552 kts | 98° |
| 2026-05-04 00:54 | 27.38995 | -85.11166 | 37083 ft | 552 kts | 99° |
| 2026-05-04 00:54 | 27.38363 | -85.02567 | 37086 ft | 552 kts | 100° |
| 2026-05-04 00:55 | 27.37709 | -84.93947 | 37089 ft | 553 kts | 100° |
| 2026-05-04 00:55 | 27.37058 | -84.85319 | 37085 ft | 553 kts | 100° |
| 2026-05-04 00:56 | 27.36412 | -84.76742 | 37078 ft | 553 kts | 100° |
| 2026-05-04 00:56 | 27.35753 | -84.68112 | 37079 ft | 553 kts | 101° |
| 2026-05-04 00:56 | 27.35386 | -84.63791 | 36884 ft | 555 kts | 101° |
| 2026-05-04 00:57 | 27.34993 | -84.59466 | 36523 ft | 552 kts | 101° |
| 2026-05-04 00:57 | 27.34593 | -84.55188 | 36137 ft | 547 kts | 101° |
| 2026-05-04 00:57 | 27.34194 | -84.50940 | 35746 ft | 543 kts | 101° |
| 2026-05-04 00:57 | 27.33804 | -84.46769 | 35352 ft | 539 kts | 101° |
| 2026-05-04 00:58 | 27.33415 | -84.42587 | 34951 ft | 536 kts | 101° |
| 2026-05-04 00:58 | 27.33029 | -84.38426 | 34547 ft | 533 kts | 101° |
| 2026-05-04 00:58 | 27.32646 | -84.34290 | 34127 ft | 530 kts | 101° |
| 2026-05-04 00:58 | 27.32265 | -84.30181 | 33691 ft | 527 kts | 100° |
| 2026-05-04 00:59 | 27.31886 | -84.26093 | 33250 ft | 524 kts | 100° |
| 2026-05-04 00:59 | 27.31507 | -84.22026 | 32831 ft | 520 kts | 100° |
| 2026-05-04 00:59 | 27.31130 | -84.17993 | 32429 ft | 516 kts | 99° |
| 2026-05-04 00:59 | 27.30755 | -84.14000 | 32036 ft | 512 kts | 99° |
| 2026-05-04 01:00 | 27.30381 | -84.10031 | 31653 ft | 509 kts | 99° |
| 2026-05-04 01:00 | 27.30009 | -84.06090 | 31261 ft | 505 kts | 99° |
| 2026-05-04 01:00 | 27.29638 | -84.02179 | 30878 ft | 502 kts | 98° |
| 2026-05-04 01:00 | 27.29267 | -83.98286 | 30496 ft | 499 kts | 98° |
| 2026-05-04 01:01 | 27.28898 | -83.94420 | 30096 ft | 496 kts | 98° |
| 2026-05-04 01:01 | 27.28531 | -83.90571 | 29645 ft | 493 kts | 98° |
| 2026-05-04 01:01 | 27.28165 | -83.86754 | 29218 ft | 488 kts | 98° |
| 2026-05-04 01:01 | 27.27802 | -83.82974 | 28804 ft | 484 kts | 98° |
| 2026-05-04 01:02 | 27.27442 | -83.79229 | 28405 ft | 480 kts | 98° |
| 2026-05-04 01:02 | 27.27083 | -83.75519 | 28012 ft | 475 kts | 98° |
| 2026-05-04 01:02 | 27.26731 | -83.71882 | 27623 ft | 471 kts | 99° |
| 2026-05-04 01:02 | 27.26376 | -83.68235 | 27240 ft | 467 kts | 99° |
| 2026-05-04 01:03 | 27.26024 | -83.64618 | 26854 ft | 464 kts | 99° |
| 2026-05-04 01:03 | 27.25673 | -83.61031 | 26464 ft | 460 kts | 99° |
| 2026-05-04 01:03 | 27.25324 | -83.57471 | 26092 ft | 457 kts | 99° |
| 2026-05-04 01:03 | 27.24976 | -83.53934 | 25704 ft | 453 kts | 99° |
| 2026-05-04 01:04 | 27.24630 | -83.50423 | 25335 ft | 450 kts | 99° |
| 2026-05-04 01:04 | 27.24286 | -83.46941 | 24956 ft | 447 kts | 99° |
| 2026-05-04 01:04 | 27.23944 | -83.43482 | 24578 ft | 444 kts | 99° |
| 2026-05-04 01:04 | 27.23602 | -83.40040 | 24193 ft | 441 kts | 99° |
| 2026-05-04 01:05 | 27.23261 | -83.36615 | 23814 ft | 439 kts | 100° |
| 2026-05-04 01:05 | 27.22789 | -83.33247 | 23387 ft | 434 kts | 105° |
| 2026-05-04 01:05 | 27.22197 | -83.29979 | 22989 ft | 430 kts | 107° |
| 2026-05-04 01:05 | 27.21557 | -83.26715 | 22594 ft | 426 kts | 107° |
| 2026-05-04 01:06 | 27.20915 | -83.23479 | 22221 ft | 422 kts | 107° |
| 2026-05-04 01:06 | 27.20287 | -83.20273 | 21853 ft | 418 kts | 107° |
| 2026-05-04 01:06 | 27.19674 | -83.17088 | 21493 ft | 415 kts | 107° |
| 2026-05-04 01:06 | 27.19074 | -83.13935 | 21130 ft | 412 kts | 106° |
| 2026-05-04 01:07 | 27.18482 | -83.10801 | 20773 ft | 409 kts | 106° |
| 2026-05-04 01:07 | 27.17896 | -83.07691 | 20417 ft | 406 kts | 106° |
| 2026-05-04 01:07 | 27.17314 | -83.04602 | 20060 ft | 403 kts | 106° |
| 2026-05-04 01:07 | 27.16734 | -83.01534 | 19707 ft | 400 kts | 106° |
| 2026-05-04 01:08 | 27.16157 | -82.98484 | 19339 ft | 398 kts | 106° |
| 2026-05-04 01:08 | 27.15582 | -82.95449 | 18989 ft | 396 kts | 106° |
| 2026-05-04 01:08 | 27.15009 | -82.92425 | 18625 ft | 395 kts | 106° |
| 2026-05-04 01:08 | 27.14437 | -82.89411 | 18256 ft | 393 kts | 106° |
| 2026-05-04 01:09 | 27.13866 | -82.86416 | 17868 ft | 391 kts | 107° |
| 2026-05-04 01:09 | 27.13373 | -82.84486 | 17613 ft | 385 kts | 116° |
| 2026-05-04 01:09 | 27.11737 | -82.81064 | 17140 ft | 371 kts | 130° |
| 2026-05-04 01:09 | 27.10291 | -82.78674 | 16776 ft | 368 kts | 131° |
| 2026-05-04 01:10 | 27.08837 | -82.76321 | 16413 ft | 365 kts | 131° |
| 2026-05-04 01:10 | 27.07859 | -82.74736 | 16182 ft | 364 kts | 131° |
| 2026-05-04 01:10 | 27.06428 | -82.72410 | 15839 ft | 361 kts | 130° |
| 2026-05-04 01:10 | 27.05029 | -82.70119 | 15507 ft | 359 kts | 130° |
| 2026-05-04 01:11 | 27.03623 | -82.67805 | 15171 ft | 357 kts | 130° |
| 2026-05-04 01:11 | 27.02232 | -82.65509 | 14841 ft | 354 kts | 130° |
| 2026-05-04 01:11 | 27.00854 | -82.63231 | 14514 ft | 352 kts | 129° |
| 2026-05-04 01:11 | 26.99489 | -82.60974 | 14186 ft | 350 kts | 129° |
| 2026-05-04 01:12 | 26.98129 | -82.58724 | 13856 ft | 347 kts | 129° |
| 2026-05-04 01:12 | 26.96774 | -82.56483 | 13486 ft | 345 kts | 129° |
| 2026-05-04 01:12 | 26.95430 | -82.54263 | 13147 ft | 342 kts | 129° |
| 2026-05-04 01:12 | 26.94101 | -82.52066 | 12814 ft | 339 kts | 129° |
| 2026-05-04 01:13 | 26.92782 | -82.49888 | 12481 ft | 336 kts | 129° |
| 2026-05-04 01:13 | 26.91488 | -82.47753 | 12163 ft | 333 kts | 129° |
| 2026-05-04 01:13 | 26.90190 | -82.45612 | 11847 ft | 331 kts | 128° |
| 2026-05-04 01:13 | 26.88901 | -82.43486 | 11527 ft | 328 kts | 128° |
| 2026-05-04 01:14 | 26.87621 | -82.41377 | 11212 ft | 326 kts | 128° |
| 2026-05-04 01:14 | 26.86352 | -82.39285 | 10899 ft | 324 kts | 128° |
| 2026-05-04 01:14 | 26.85091 | -82.37209 | 10594 ft | 322 kts | 128° |
| 2026-05-04 01:14 | 26.83834 | -82.35139 | 10282 ft | 320 kts | 128° |
| 2026-05-04 01:15 | 26.82595 | -82.33101 | 10089 ft | 314 kts | 128° |
| 2026-05-04 01:15 | 26.81392 | -82.31122 | 9849 ft | 310 kts | 128° |
| 2026-05-04 01:15 | 26.80177 | -82.29135 | 9535 ft | 308 kts | 129° |
| 2026-05-04 01:15 | 26.78694 | -82.27453 | 9215 ft | 300 kts | 147° |
| 2026-05-04 01:16 | 26.77010 | -82.26111 | 8931 ft | 296 kts | 149° |
| 2026-05-04 01:16 | 26.75320 | -82.24811 | 8633 ft | 294 kts | 149° |
| 2026-05-04 01:16 | 26.73637 | -82.23516 | 8341 ft | 293 kts | 149° |
| 2026-05-04 01:16 | 26.71963 | -82.22221 | 8050 ft | 291 kts | 149° |
| 2026-05-04 01:17 | 26.70301 | -82.20925 | 7760 ft | 290 kts | 148° |
| 2026-05-04 01:17 | 26.68648 | -82.19631 | 7470 ft | 289 kts | 148° |
| 2026-05-04 01:17 | 26.67006 | -82.18341 | 7173 ft | 288 kts | 148° |
| 2026-05-04 01:17 | 26.65393 | -82.17071 | 6886 ft | 287 kts | 148° |
| 2026-05-04 01:18 | 26.63763 | -82.15788 | 6605 ft | 286 kts | 148° |
| 2026-05-04 01:18 | 26.62133 | -82.14504 | 6287 ft | 286 kts | 147° |
| 2026-05-04 01:18 | 26.60512 | -82.13228 | 5990 ft | 285 kts | 147° |
| 2026-05-04 01:18 | 26.58890 | -82.11950 | 5702 ft | 284 kts | 146° |
| 2026-05-04 01:19 | 26.57274 | -82.10676 | 5390 ft | 283 kts | 146° |
| 2026-05-04 01:19 | 26.55669 | -82.09412 | 5101 ft | 282 kts | 145° |
| 2026-05-04 01:19 | 26.54065 | -82.08151 | 4809 ft | 280 kts | 144° |
| 2026-05-04 01:19 | 26.52474 | -82.06898 | 4524 ft | 279 kts | 144° |
| 2026-05-04 01:20 | 26.50891 | -82.05653 | 4248 ft | 278 kts | 143° |
| 2026-05-04 01:20 | 26.49331 | -82.04411 | 3958 ft | 275 kts | 138° |
| 2026-05-04 01:20 | 26.48186 | -82.02757 | 3702 ft | 268 kts | 111° |
| 2026-05-04 01:20 | 26.47677 | -82.00796 | 3566 ft | 258 kts | 99° |
| 2026-05-04 01:21 | 26.47320 | -81.98889 | 3427 ft | 249 kts | 98° |
| 2026-05-04 01:21 | 26.46976 | -81.97031 | 3347 ft | 240 kts | 99° |
| 2026-05-04 01:21 | 26.46640 | -81.95256 | 3261 ft | 226 kts | 99° |
| 2026-05-04 01:21 | 26.46321 | -81.93601 | 3150 ft | 212 kts | 99° |
| 2026-05-04 01:22 | 26.46010 | -81.91993 | 2931 ft | 210 kts | 99° |
| 2026-05-04 01:22 | 26.45704 | -81.90420 | 2705 ft | 204 kts | 100° |
| 2026-05-04 01:22 | 26.45575 | -81.88869 | 2461 ft | 198 kts | 75° |
| 2026-05-04 01:22 | 26.46118 | -81.87504 | 2250 ft | 197 kts | 60° |
| 2026-05-04 01:23 | 26.46790 | -81.86181 | 2013 ft | 195 kts | 59° |
| 2026-05-04 01:23 | 26.47524 | -81.84925 | 1737 ft | 190 kts | 55° |
| 2026-05-04 01:23 | 26.48277 | -81.83753 | 1492 ft | 180 kts | 53° |
| 2026-05-04 01:23 | 26.48986 | -81.82662 | 1287 ft | 167 kts | 54° |
| 2026-05-04 01:24 | 26.49637 | -81.81657 | 1077 ft | 152 kts | 53° |
| 2026-05-04 01:24 | 26.50241 | -81.80722 | 880 ft | 146 kts | 52° |
| 2026-05-04 01:24 | 26.50841 | -81.79803 | 689 ft | 146 kts | 54° |
| 2026-05-04 01:24 | 26.51405 | -81.78910 | 513 ft | 137 kts | 53° |
| 2026-05-04 01:25 | 26.51970 | -81.78049 | 290 ft | 137 kts | 53° |
| 2026-05-04 01:25 | 26.52516 | -81.77204 | 114 ft | 132 kts | 54° |
| 2026-05-04 01:25 | 26.53041 | -81.76402 | 31 ft | 119 kts | 53° |
| 2026-05-04 01:25 | 26.53405 | -81.75844 | 36 ft | 57 kts | 54° |
| 2026-05-04 01:26 | 26.53574 | -81.75586 | 34 ft | 37 kts | 54° |
| 2026-05-04 01:26 | 26.53695 | -81.75407 | 33 ft | 22 kts | 45° |
| 2026-05-04 01:26 | 26.53799 | -81.75352 | 32 ft | 15 kts | 345° |
| 2026-05-04 01:26 | 26.53802 | -81.75442 | 31 ft | 1 kts | 232° |
| 2026-05-04 01:27 | 26.53799 | -81.75447 | 32 ft | 3 kts | 232° |
| 2026-05-04 01:27 | 26.53763 | -81.75501 | 30 ft | 15 kts | 234° |
| 2026-05-04 01:27 | 26.53695 | -81.75607 | 31 ft | 17 kts | 234° |
| 2026-05-04 01:28 | 26.53625 | -81.75713 | 34 ft | 17 kts | 234° |
| 2026-05-04 01:28 | 26.53558 | -81.75816 | 35 ft | 17 kts | 233° |
| 2026-05-04 01:28 | 26.53482 | -81.75933 | 36 ft | 19 kts | 234° |
| 2026-05-04 01:28 | 26.53404 | -81.76053 | 37 ft | 20 kts | 234° |
| 2026-05-04 01:29 | 26.53323 | -81.76177 | 34 ft | 13 kts | 234° |
| 2026-05-04 01:29 | 26.53334 | -81.76262 | 35 ft | 13 kts | 320° |
| 2026-05-04 01:29 | 26.53405 | -81.76321 | 34 ft | 14 kts | 323° |
| 2026-05-04 01:29 | 26.53436 | -81.76409 | 37 ft | 14 kts | 240° |
| 2026-05-04 01:30 | 26.53376 | -81.76499 | 37 ft | 15 kts | 233° |
| 2026-05-04 01:30 | 26.53341 | -81.76587 | 36 ft | 9 kts | 294° |
| 2026-05-04 01:30 | 26.53378 | -81.76617 | 37 ft | 0 kts | 327° |
| 2026-05-04 01:49 | 26.53378 | -81.76616 | 37 ft | 0 kts | 327° |